Yp707 — NFEE — position and weather

sailwx.info

Track history (hours):
 
Tides and Currents Weather Stations Pressure Air Temp Water Temp Dewpoint Dewpoint Depression Visibility Wind Speed Wind Dir Waves Ship Positions

Yp707

Last reported at 2018-Jun-24 12:52 UTC. Time now 2018-Jun-25 00:24 UTC.
Position N 38°59' W 076°28'.

Length 36 m; draft 2.6 m.

Type: Ship. MMSI: 369970481.

Date/timePositionNaut miles runAvg speedWind from/ knotsBaromVisibWave heightAir tempDewpointWater temp
2018-Jun-24 12:52N 38°59' W 076°28'0 0.0
2018-Jun-24 12:30N 38°59' W 076°28'0 0.0
2018-Jun-24 12:00N 38°59' W 076°28'0 0.0
2018-Jun-24 11:30N 38°59' W 076°28'0 0.0
2018-Jun-24 11:00N 38°59' W 076°28'0 0.0
2018-Jun-24 10:30N 38°59' W 076°28'0 0.0
2018-Jun-24 10:00N 38°59' W 076°28'0 0.0
2018-Jun-24 09:00N 38°59' W 076°28'0 0.0
2018-Jun-24 06:42N 38°59' W 076°28'0 0.0
2018-Jun-22 12:25N 38°59' W 076°28'0 0.0
2018-Jun-22 12:00N 38°59' W 076°28'0 0.0
2018-Jun-22 11:30N 38°59' W 076°28'0 0.0
2018-Jun-22 11:01N 38°59' W 076°28'0 0.0
2018-Jun-22 10:09N 38°59' W 076°28'0 0.0
2018-Jun-22 09:58N 38°59' W 076°28'0 0.0
2018-Jun-22 09:31N 38°59' W 076°28'0 0.0
2018-Jun-22 09:00N 38°59' W 076°28'0 0.0
2018-Jun-22 08:30N 38°59' W 076°28'0 0.0
2018-Jun-22 08:01N 38°59' W 076°28'0 0.0
2018-Jun-22 07:31N 38°59' W 076°28'0 0.0
2018-Jun-22 07:00N 38°59' W 076°28'0 0.0
2018-Jun-22 06:30N 38°59' W 076°28'0 0.0
2018-Jun-22 06:01N 38°59' W 076°28'0 0.0
2018-Jun-22 05:30N 38°59' W 076°28'0 0.0
2018-Jun-22 05:00N 38°59' W 076°28'0 0.0
2018-Jun-22 04:30N 38°59' W 076°28'0 0.0
2018-Jun-22 04:00N 38°59' W 076°28'0 0.0
2018-Jun-22 03:30N 38°59' W 076°28'0 0.0
2018-Jun-22 03:00N 38°59' W 076°28'0 0.0
2018-Jun-21 17:11N 38°59' W 076°28'0 2.4
2018-Jun-21 17:00N 38°59' W 076°29'0 0.0
2018-Jun-21 16:30N 38°59' W 076°29'2 3.7
2018-Jun-21 16:00N 38°58' W 076°27'4 9.1
2018-Jun-21 15:30N 39°00' W 076°23'5 9.6
2018-Jun-21 14:59N 39°05' W 076°21'2511.0
2018-Jun-21 12:44N 39°25' W 076°02'311.9
2018-Jun-21 12:30N 39°27' W 075°60'611.9
2018-Jun-21 12:00N 39°31' W 075°54'510.6
2018-Jun-21 11:30N 39°32' W 075°47'5 9.6
2018-Jun-21 11:00N 39°33' W 075°41'510.0
2018-Jun-21 10:30N 39°34' W 075°35'4 7.1
2018-Jun-21 10:00N 39°30' W 075°33'510.2
2018-Jun-21 09:30N 39°25' W 075°31'611.1
2018-Jun-21 09:00N 39°21' W 075°26'611.0
2018-Jun-21 08:30N 39°17' W 075°22'510.9
2018-Jun-21 08:00N 39°13' W 075°17'611.2
2018-Jun-21 07:30N 39°08' W 075°13'1011.2
2018-Jun-21 06:35N 38°59' W 075°08'112.6
2018-Jun-21 06:28N 38°57' W 075°07'611.6
2018-Jun-21 05:58N 38°52' W 075°04'11 9.6
2018-Jun-21 04:48N 38°50' W 074°50'411.1
2018-Jun-21 04:25N 38°54' W 074°47'511.2
2018-Jun-21 03:59N 38°57' W 074°43'910.8
2018-Jun-21 03:09N 39°04' W 074°35'210.7
2018-Jun-21 03:00N 39°05' W 074°33'810.8
2018-Jun-21 02:16N 39°10' W 074°25'311.0
2018-Jun-21 02:00N 39°11' W 074°23'510.6
2018-Jun-21 01:30N 39°15' W 074°17'510.5
2018-Jun-21 01:00N 39°18' W 074°12'510.6
2018-Jun-21 00:30N 39°21' W 074°06'510.6
2018-Jun-20 23:59N 39°25' W 074°01'510.7
2018-Jun-20 23:30N 39°28' W 073°56'510.6
2018-Jun-20 22:59N 39°32' W 073°51'711.0
2018-Jun-20 22:24N 39°38' W 073°50'510.7
2018-Jun-20 21:57N 39°43' W 073°50'610.5
2018-Jun-20 21:20N 39°49' W 073°50'310.5
2018-Jun-20 21:00N 39°53' W 073°50'37 9.4
2018-Jun-20 17:02N 40°30' W 073°57'3 8.9
2018-Jun-20 16:39N 40°31' W 074°01'3 9.2
2018-Jun-20 16:23N 40°34' W 074°02'410.5
2018-Jun-20 16:00N 40°38' W 074°03'5 9.5
2018-Jun-20 15:30N 40°42' W 074°00'4 7.2
2018-Jun-20 15:00N 40°45' W 073°58'57 8.0
2018-Jun-20 07:50N 41°08' W 072°49'3 8.1
2018-Jun-20 07:28N 41°08' W 072°45'4 8.7
2018-Jun-20 07:00N 41°09' W 072°40'4 8.3
2018-Jun-20 06:30N 41°10' W 072°34'4 8.5
2018-Jun-20 06:00N 41°10' W 072°29'4 8.3
2018-Jun-20 05:30N 41°11' W 072°23'4 8.7
2018-Jun-20 05:00N 41°12' W 072°18'4 8.3
2018-Jun-20 04:29N 41°14' W 072°12'93 6.5
2018-Jun-19 14:08N 42°15' W 070°37'1 8.5
2018-Jun-19 14:00N 42°16' W 070°38'4 8.1
2018-Jun-19 13:30N 42°18' W 070°42'4 8.1
2018-Jun-19 13:00N 42°21' W 070°46'4 7.6
2018-Jun-19 12:30N 42°23' W 070°51'4 7.5
2018-Jun-19 12:01N 42°21' W 070°56'4 7.1
2018-Jun-19 11:30N 42°20' W 071°00'3 5.3
2018-Jun-19 11:00N 42°22' W 071°03'0 0.0
2018-Jun-19 10:30N 42°22' W 071°03'0 0.0
2018-Jun-19 10:00N 42°22' W 071°03'0 0.0
2018-Jun-19 09:30N 42°22' W 071°03'0 0.0
2018-Jun-19 09:01N 42°22' W 071°03'0 0.0
2018-Jun-19 08:30N 42°22' W 071°03'0 0.0
2018-Jun-19 08:00N 42°22' W 071°03'0 0.0
2018-Jun-19 07:30N 42°22' W 071°03'0 0.0
2018-Jun-19 06:57N 42°22' W 071°03'0 0.0
2018-Jun-19 06:30N 42°22' W 071°03'0 0.0
2018-Jun-19 06:00N 42°22' W 071°03'0 0.0
2018-Jun-19 05:30N 42°22' W 071°03'0 0.0
2018-Jun-19 05:00N 42°22' W 071°03'0 0.0
2018-Jun-19 04:30N 42°22' W 071°03'0 0.0
2018-Jun-19 04:00N 42°22' W 071°03'0 0.0
2018-Jun-19 03:30N 42°22' W 071°03'0 0.0
2018-Jun-19 03:00N 42°22' W 071°03'0 0.0
2018-Jun-19 02:31N 42°22' W 071°03'0 0.0
2018-Jun-19 02:00N 42°22' W 071°03'0 0.0
2018-Jun-19 01:30N 42°22' W 071°03'0 0.0
2018-Jun-19 00:57N 42°22' W 071°03'0 0.0
2018-Jun-19 00:30N 42°22' W 071°03'0 0.0
2018-Jun-19 00:00N 42°22' W 071°03'0 0.0
2018-Jun-18 23:30N 42°22' W 071°03'0 0.0
2018-Jun-18 23:00N 42°22' W 071°03'0 0.0
2018-Jun-18 22:30N 42°22' W 071°03'0 0.0
2018-Jun-18 22:00N 42°22' W 071°03'0 0.0
2018-Jun-18 21:30N 42°22' W 071°03'0 0.0
2018-Jun-18 21:00N 42°22' W 071°03'0 0.0
2018-Jun-18 20:30N 42°22' W 071°03'0 0.0
2018-Jun-18 20:00N 42°22' W 071°03'0 0.0
2018-Jun-18 19:30N 42°22' W 071°03'0 0.0
2018-Jun-18 19:00N 42°22' W 071°03'0 0.0
2018-Jun-18 18:30N 42°22' W 071°03'0 0.0
2018-Jun-18 18:00N 42°22' W 071°03'0 0.0
2018-Jun-18 17:30N 42°22' W 071°03'0 0.0
2018-Jun-18 17:00N 42°22' W 071°03'0 0.0
2018-Jun-18 16:30N 42°22' W 071°03'0 0.0
2018-Jun-18 16:00N 42°22' W 071°03'0 0.0
2018-Jun-18 15:30N 42°22' W 071°03'0 0.0
2018-Jun-18 15:00N 42°22' W 071°03'0 0.0
2018-Jun-18 14:30N 42°22' W 071°03'0 0.0
2018-Jun-18 14:00N 42°22' W 071°03'0 0.0
2018-Jun-18 13:27N 42°22' W 071°03'0 0.0
2018-Jun-18 13:00N 42°22' W 071°03'0 0.0
2018-Jun-18 12:30N 42°22' W 071°03'0 0.0
2018-Jun-18 12:00N 42°22' W 071°03'0 0.0
2018-Jun-18 11:30N 42°22' W 071°03'0 0.0
2018-Jun-18 11:00N 42°22' W 071°03'0 0.0
2018-Jun-18 10:27N 42°22' W 071°03'0 0.0
2018-Jun-18 10:00N 42°22' W 071°03'0 0.0
2018-Jun-18 09:30N 42°22' W 071°03'0 0.0
2018-Jun-18 09:00N 42°22' W 071°03'0 0.0
2018-Jun-18 08:30N 42°22' W 071°03'0 0.0
2018-Jun-18 08:00N 42°22' W 071°03'0 0.0
2018-Jun-18 07:30N 42°22' W 071°03'0 0.0
2018-Jun-18 07:00N 42°22' W 071°03'0 0.0
2018-Jun-18 06:30N 42°22' W 071°03'0 0.0
2018-Jun-18 06:00N 42°22' W 071°03'0 0.0
2018-Jun-18 05:30N 42°22' W 071°03'0 0.0
2018-Jun-18 05:00N 42°22' W 071°03'0 0.0
2018-Jun-18 04:30N 42°22' W 071°03'0 0.0
2018-Jun-18 04:00N 42°22' W 071°03'0 0.0
2018-Jun-18 03:30N 42°22' W 071°03'0 0.0
2018-Jun-18 03:00N 42°22' W 071°03'0 0.0
2018-Jun-18 02:30N 42°22' W 071°03'0 0.0
2018-Jun-18 02:00N 42°22' W 071°03'0 0.0
2018-Jun-18 01:30N 42°22' W 071°03'0 0.0
2018-Jun-18 01:00N 42°22' W 071°03'0 0.0
2018-Jun-18 00:30N 42°22' W 071°03'0 0.0
2018-Jun-18 00:00N 42°22' W 071°03'0 0.0
2018-Jun-17 23:30N 42°22' W 071°03'0 0.0
2018-Jun-17 23:00N 42°22' W 071°03'0 0.0
2018-Jun-17 22:30N 42°22' W 071°03'0 0.0
2018-Jun-17 22:00N 42°22' W 071°03'0 0.0
2018-Jun-17 21:30N 42°22' W 071°03'0 0.0
2018-Jun-17 21:00N 42°22' W 071°03'0 0.0
2018-Jun-17 20:30N 42°22' W 071°03'0 0.0
2018-Jun-17 20:00N 42°22' W 071°03'0 0.0
2018-Jun-17 19:30N 42°22' W 071°03'0 0.0
2018-Jun-17 19:00N 42°22' W 071°03'0 0.0
2018-Jun-17 18:30N 42°22' W 071°03'0 0.0
2018-Jun-17 18:00N 42°22' W 071°03'0 0.0
2018-Jun-17 17:30N 42°22' W 071°03'0 0.0
2018-Jun-17 17:00N 42°22' W 071°03'0 0.0
2018-Jun-17 16:30N 42°22' W 071°03'0 0.0
2018-Jun-17 16:00N 42°22' W 071°03'0 0.0
2018-Jun-17 15:27N 42°22' W 071°03'0 0.0
2018-Jun-17 15:00N 42°22' W 071°03'0 0.0
2018-Jun-17 14:30N 42°22' W 071°03'0 0.0
2018-Jun-17 14:00N 42°22' W 071°03'0 0.0
2018-Jun-17 13:30N 42°22' W 071°03'0 0.0
2018-Jun-17 13:00N 42°22' W 071°03'0 0.0
2018-Jun-17 12:30N 42°22' W 071°03'0 0.0
2018-Jun-17 12:00N 42°22' W 071°03'0 0.0
2018-Jun-17 11:30N 42°22' W 071°03'0 0.0
2018-Jun-17 11:00N 42°22' W 071°03'0 0.0
2018-Jun-17 10:30N 42°22' W 071°03'0 0.0
2018-Jun-17 10:00N 42°22' W 071°03'0 0.0
2018-Jun-17 09:30N 42°22' W 071°03'0 0.0
2018-Jun-17 09:00N 42°22' W 071°03'0 0.0
2018-Jun-17 08:30N 42°22' W 071°03'0 0.0
2018-Jun-17 08:00N 42°22' W 071°03'0 0.0
2018-Jun-17 07:30N 42°22' W 071°03'0 0.0
2018-Jun-17 07:00N 42°22' W 071°03'0 0.0
2018-Jun-17 06:30N 42°22' W 071°03'0 0.0
2018-Jun-17 06:00N 42°22' W 071°03'0 0.0
2018-Jun-17 05:30N 42°22' W 071°03'0 0.0
2018-Jun-17 05:00N 42°22' W 071°03'0 0.0
2018-Jun-17 04:30N 42°22' W 071°03'0 0.0
2018-Jun-17 04:00N 42°22' W 071°03'0 0.0
2018-Jun-17 03:30N 42°22' W 071°03'0 0.0
2018-Jun-17 03:00N 42°22' W 071°03'0 0.0
2018-Jun-17 02:30N 42°22' W 071°03'0 0.0
2018-Jun-17 02:00N 42°22' W 071°03'0 0.0
2018-Jun-17 01:30N 42°22' W 071°03'0 0.0
2018-Jun-17 01:00N 42°22' W 071°03'0 0.0
2018-Jun-17 00:30N 42°22' W 071°03'0 0.0
2018-Jun-17 00:00N 42°22' W 071°03'0 0.0
2018-Jun-16 23:30N 42°22' W 071°03'0 0.0
2018-Jun-16 23:00N 42°22' W 071°03'0 0.0
2018-Jun-16 22:30N 42°22' W 071°03'0 0.0
2018-Jun-16 22:00N 42°22' W 071°03'0 0.0
2018-Jun-16 21:30N 42°22' W 071°03'0 0.0
2018-Jun-16 21:00N 42°22' W 071°03'0 0.0
2018-Jun-16 20:30N 42°22' W 071°03'0 0.0
2018-Jun-16 20:00N 42°22' W 071°03'0 0.0
2018-Jun-16 19:30N 42°22' W 071°03'0 0.0
2018-Jun-16 19:00N 42°22' W 071°03'0 0.0
2018-Jun-16 18:30N 42°22' W 071°03'0 0.0
2018-Jun-16 18:00N 42°22' W 071°03'0 0.0
2018-Jun-16 17:30N 42°22' W 071°03'0 0.0
2018-Jun-16 17:00N 42°22' W 071°03'0 0.0
2018-Jun-16 16:30N 42°22' W 071°03'3 5.6
2018-Jun-16 16:00N 42°20' W 071°00'5 9.7
2018-Jun-16 15:30N 42°22' W 070°54'5 9.6
2018-Jun-16 15:00N 42°23' W 070°48'4 8.4
2018-Jun-16 14:30N 42°21' W 070°43'4 8.9
2018-Jun-16 14:00N 42°17' W 070°40'4 8.7
2018-Jun-16 13:30N 42°14' W 070°36'27 8.4
2018-Jun-16 10:20N 41°48' W 070°29'84 7.5
2018-Jun-15 23:14N 41°14' W 072°11'310.4
2018-Jun-15 22:55N 41°13' W 072°15'513.4
2018-Jun-15 22:30N 41°12' W 072°22'612.6
2018-Jun-15 22:00N 41°10' W 072°30'612.7
2018-Jun-15 21:30N 41°09' W 072°38'63 2.0
2018-Jun-14 14:55N 40°47' W 073°56'3 7.6
2018-Jun-14 14:30N 40°44' W 073°58'3 6.3
2018-Jun-14 14:01N 40°42' W 074°02'4 7.1
2018-Jun-14 13:29N 40°46' W 074°00'  
Track history (hours):
 
Tides and Currents Weather Stations Pressure Air Temp Water Temp Dewpoint Dewpoint Depression Visibility Wind Speed Wind Dir Waves Ship Positions

Yp707

Last reported at 2018-Jun-24 12:52 UTC. Time now 2018-Jun-25 00:24 UTC.
Position N 38°59' W 076°28'.

Length 36 m; draft 2.6 m.

Type: Ship. MMSI: 369970481.

Date/timePositionNaut miles runAvg speedWind from/ knotsBaromVisibWave heightAir tempDewpointWater temp
2018-Jun-24 12:52N 38°59' W 076°28'0 0.0
2018-Jun-24 12:30N 38°59' W 076°28'0 0.0
2018-Jun-24 12:00N 38°59' W 076°28'0 0.0
2018-Jun-24 11:30N 38°59' W 076°28'0 0.0
2018-Jun-24 11:00N 38°59' W 076°28'0 0.0
2018-Jun-24 10:30N 38°59' W 076°28'0 0.0
2018-Jun-24 10:00N 38°59' W 076°28'0 0.0
2018-Jun-24 09:00N 38°59' W 076°28'0 0.0
2018-Jun-24 06:42N 38°59' W 076°28'0 0.0
2018-Jun-22 12:25N 38°59' W 076°28'0 0.0
2018-Jun-22 12:00N 38°59' W 076°28'0 0.0
2018-Jun-22 11:30N 38°59' W 076°28'0 0.0
2018-Jun-22 11:01N 38°59' W 076°28'0 0.0
2018-Jun-22 10:09N 38°59' W 076°28'0 0.0
2018-Jun-22 09:58N 38°59' W 076°28'0 0.0
2018-Jun-22 09:31N 38°59' W 076°28'0 0.0
2018-Jun-22 09:00N 38°59' W 076°28'0 0.0
2018-Jun-22 08:30N 38°59' W 076°28'0 0.0
2018-Jun-22 08:01N 38°59' W 076°28'0 0.0
2018-Jun-22 07:31N 38°59' W 076°28'0 0.0
2018-Jun-22 07:00N 38°59' W 076°28'0 0.0
2018-Jun-22 06:30N 38°59' W 076°28'0 0.0
2018-Jun-22 06:01N 38°59' W 076°28'0 0.0
2018-Jun-22 05:30N 38°59' W 076°28'0 0.0
2018-Jun-22 05:00N 38°59' W 076°28'0 0.0
2018-Jun-22 04:30N 38°59' W 076°28'0 0.0
2018-Jun-22 04:00N 38°59' W 076°28'0 0.0
2018-Jun-22 03:30N 38°59' W 076°28'0 0.0
2018-Jun-22 03:00N 38°59' W 076°28'0 0.0
2018-Jun-21 17:11N 38°59' W 076°28'0 2.4
2018-Jun-21 17:00N 38°59' W 076°29'0 0.0
2018-Jun-21 16:30N 38°59' W 076°29'2 3.7
2018-Jun-21 16:00N 38°58' W 076°27'4 9.1
2018-Jun-21 15:30N 39°00' W 076°23'5 9.6
2018-Jun-21 14:59N 39°05' W 076°21'2511.0
2018-Jun-21 12:44N 39°25' W 076°02'311.9
2018-Jun-21 12:30N 39°27' W 075°60'611.9
2018-Jun-21 12:00N 39°31' W 075°54'510.6
2018-Jun-21 11:30N 39°32' W 075°47'5 9.6
2018-Jun-21 11:00N 39°33' W 075°41'510.0
2018-Jun-21 10:30N 39°34' W 075°35'4 7.1
2018-Jun-21 10:00N 39°30' W 075°33'510.2
2018-Jun-21 09:30N 39°25' W 075°31'611.1
2018-Jun-21 09:00N 39°21' W 075°26'611.0
2018-Jun-21 08:30N 39°17' W 075°22'510.9
2018-Jun-21 08:00N 39°13' W 075°17'611.2
2018-Jun-21 07:30N 39°08' W 075°13'1011.2
2018-Jun-21 06:35N 38°59' W 075°08'112.6
2018-Jun-21 06:28N 38°57' W 075°07'611.6
2018-Jun-21 05:58N 38°52' W 075°04'11 9.6
2018-Jun-21 04:48N 38°50' W 074°50'411.1
2018-Jun-21 04:25N 38°54' W 074°47'511.2
2018-Jun-21 03:59N 38°57' W 074°43'910.8
2018-Jun-21 03:09N 39°04' W 074°35'210.7
2018-Jun-21 03:00N 39°05' W 074°33'810.8
2018-Jun-21 02:16N 39°10' W 074°25'311.0
2018-Jun-21 02:00N 39°11' W 074°23'510.6
2018-Jun-21 01:30N 39°15' W 074°17'510.5
2018-Jun-21 01:00N 39°18' W 074°12'510.6
2018-Jun-21 00:30N 39°21' W 074°06'510.6
2018-Jun-20 23:59N 39°25' W 074°01'510.7
2018-Jun-20 23:30N 39°28' W 073°56'510.6
2018-Jun-20 22:59N 39°32' W 073°51'711.0
2018-Jun-20 22:24N 39°38' W 073°50'510.7
2018-Jun-20 21:57N 39°43' W 073°50'610.5
2018-Jun-20 21:20N 39°49' W 073°50'310.5
2018-Jun-20 21:00N 39°53' W 073°50'37 9.4
2018-Jun-20 17:02N 40°30' W 073°57'3 8.9
2018-Jun-20 16:39N 40°31' W 074°01'3 9.2
2018-Jun-20 16:23N 40°34' W 074°02'410.5
2018-Jun-20 16:00N 40°38' W 074°03'5 9.5
2018-Jun-20 15:30N 40°42' W 074°00'4 7.2
2018-Jun-20 15:00N 40°45' W 073°58'57 8.0
2018-Jun-20 07:50N 41°08' W 072°49'3 8.1
2018-Jun-20 07:28N 41°08' W 072°45'4 8.7
2018-Jun-20 07:00N 41°09' W 072°40'4 8.3
2018-Jun-20 06:30N 41°10' W 072°34'4 8.5
2018-Jun-20 06:00N 41°10' W 072°29'4 8.3
2018-Jun-20 05:30N 41°11' W 072°23'4 8.7
2018-Jun-20 05:00N 41°12' W 072°18'4 8.3
2018-Jun-20 04:29N 41°14' W 072°12'93 6.5
2018-Jun-19 14:08N 42°15' W 070°37'1 8.5
2018-Jun-19 14:00N 42°16' W 070°38'4 8.1
2018-Jun-19 13:30N 42°18' W 070°42'4 8.1
2018-Jun-19 13:00N 42°21' W 070°46'4 7.6
2018-Jun-19 12:30N 42°23' W 070°51'4 7.5
2018-Jun-19 12:01N 42°21' W 070°56'4 7.1
2018-Jun-19 11:30N 42°20' W 071°00'3 5.3
2018-Jun-19 11:00N 42°22' W 071°03'0 0.0
2018-Jun-19 10:30N 42°22' W 071°03'0 0.0
2018-Jun-19 10:00N 42°22' W 071°03'0 0.0
2018-Jun-19 09:30N 42°22' W 071°03'0 0.0
2018-Jun-19 09:01N 42°22' W 071°03'0 0.0
2018-Jun-19 08:30N 42°22' W 071°03'0 0.0
2018-Jun-19 08:00N 42°22' W 071°03'0 0.0
2018-Jun-19 07:30N 42°22' W 071°03'0 0.0
2018-Jun-19 06:57N 42°22' W 071°03'0 0.0
2018-Jun-19 06:30N 42°22' W 071°03'0 0.0
2018-Jun-19 06:00N 42°22' W 071°03'0 0.0
2018-Jun-19 05:30N 42°22' W 071°03'0 0.0
2018-Jun-19 05:00N 42°22' W 071°03'0 0.0
2018-Jun-19 04:30N 42°22' W 071°03'0 0.0
2018-Jun-19 04:00N 42°22' W 071°03'0 0.0
2018-Jun-19 03:30N 42°22' W 071°03'0 0.0
2018-Jun-19 03:00N 42°22' W 071°03'0 0.0
2018-Jun-19 02:31N 42°22' W 071°03'0 0.0
2018-Jun-19 02:00N 42°22' W 071°03'0 0.0
2018-Jun-19 01:30N 42°22' W 071°03'0 0.0
2018-Jun-19 00:57N 42°22' W 071°03'0 0.0
2018-Jun-19 00:30N 42°22' W 071°03'0 0.0
2018-Jun-19 00:00N 42°22' W 071°03'0 0.0
2018-Jun-18 23:30N 42°22' W 071°03'0 0.0
2018-Jun-18 23:00N 42°22' W 071°03'0 0.0
2018-Jun-18 22:30N 42°22' W 071°03'0 0.0
2018-Jun-18 22:00N 42°22' W 071°03'0 0.0
2018-Jun-18 21:30N 42°22' W 071°03'0 0.0
2018-Jun-18 21:00N 42°22' W 071°03'0 0.0
2018-Jun-18 20:30N 42°22' W 071°03'0 0.0
2018-Jun-18 20:00N 42°22' W 071°03'0 0.0
2018-Jun-18 19:30N 42°22' W 071°03'0 0.0
2018-Jun-18 19:00N 42°22' W 071°03'0 0.0
2018-Jun-18 18:30N 42°22' W 071°03'0 0.0
2018-Jun-18 18:00N 42°22' W 071°03'0 0.0
2018-Jun-18 17:30N 42°22' W 071°03'0 0.0
2018-Jun-18 17:00N 42°22' W 071°03'0 0.0
2018-Jun-18 16:30N 42°22' W 071°03'0 0.0
2018-Jun-18 16:00N 42°22' W 071°03'0 0.0
2018-Jun-18 15:30N 42°22' W 071°03'0 0.0
2018-Jun-18 15:00N 42°22' W 071°03'0 0.0
2018-Jun-18 14:30N 42°22' W 071°03'0 0.0
2018-Jun-18 14:00N 42°22' W 071°03'0 0.0
2018-Jun-18 13:27N 42°22' W 071°03'0 0.0
2018-Jun-18 13:00N 42°22' W 071°03'0 0.0
2018-Jun-18 12:30N 42°22' W 071°03'0 0.0
2018-Jun-18 12:00N 42°22' W 071°03'0 0.0
2018-Jun-18 11:30N 42°22' W 071°03'0 0.0
2018-Jun-18 11:00N 42°22' W 071°03'0 0.0
2018-Jun-18 10:27N 42°22' W 071°03'0 0.0
2018-Jun-18 10:00N 42°22' W 071°03'0 0.0
2018-Jun-18 09:30N 42°22' W 071°03'0 0.0
2018-Jun-18 09:00N 42°22' W 071°03'0 0.0
2018-Jun-18 08:30N 42°22' W 071°03'0 0.0
2018-Jun-18 08:00N 42°22' W 071°03'0 0.0
2018-Jun-18 07:30N 42°22' W 071°03'0 0.0
2018-Jun-18 07:00N 42°22' W 071°03'0 0.0
2018-Jun-18 06:30N 42°22' W 071°03'0 0.0
2018-Jun-18 06:00N 42°22' W 071°03'0 0.0
2018-Jun-18 05:30N 42°22' W 071°03'0 0.0
2018-Jun-18 05:00N 42°22' W 071°03'0 0.0
2018-Jun-18 04:30N 42°22' W 071°03'0 0.0
2018-Jun-18 04:00N 42°22' W 071°03'0 0.0
2018-Jun-18 03:30N 42°22' W 071°03'0 0.0
2018-Jun-18 03:00N 42°22' W 071°03'0 0.0
2018-Jun-18 02:30N 42°22' W 071°03'0 0.0
2018-Jun-18 02:00N 42°22' W 071°03'0 0.0
2018-Jun-18 01:30N 42°22' W 071°03'0 0.0
2018-Jun-18 01:00N 42°22' W 071°03'0 0.0
2018-Jun-18 00:30N 42°22' W 071°03'0 0.0
2018-Jun-18 00:00N 42°22' W 071°03'0 0.0
2018-Jun-17 23:30N 42°22' W 071°03'0 0.0
2018-Jun-17 23:00N 42°22' W 071°03'0 0.0
2018-Jun-17 22:30N 42°22' W 071°03'0 0.0
2018-Jun-17 22:00N 42°22' W 071°03'0 0.0
2018-Jun-17 21:30N 42°22' W 071°03'0 0.0
2018-Jun-17 21:00N 42°22' W 071°03'0 0.0
2018-Jun-17 20:30N 42°22' W 071°03'0 0.0
2018-Jun-17 20:00N 42°22' W 071°03'0 0.0
2018-Jun-17 19:30N 42°22' W 071°03'0 0.0
2018-Jun-17 19:00N 42°22' W 071°03'0 0.0
2018-Jun-17 18:30N 42°22' W 071°03'0 0.0
2018-Jun-17 18:00N 42°22' W 071°03'0 0.0
2018-Jun-17 17:30N 42°22' W 071°03'0 0.0
2018-Jun-17 17:00N 42°22' W 071°03'0 0.0
2018-Jun-17 16:30N 42°22' W 071°03'0 0.0
2018-Jun-17 16:00N 42°22' W 071°03'0 0.0
2018-Jun-17 15:27N 42°22' W 071°03'0 0.0
2018-Jun-17 15:00N 42°22' W 071°03'0 0.0
2018-Jun-17 14:30N 42°22' W 071°03'0 0.0
2018-Jun-17 14:00N 42°22' W 071°03'0 0.0
2018-Jun-17 13:30N 42°22' W 071°03'0 0.0
2018-Jun-17 13:00N 42°22' W 071°03'0 0.0
2018-Jun-17 12:30N 42°22' W 071°03'0 0.0
2018-Jun-17 12:00N 42°22' W 071°03'0 0.0
2018-Jun-17 11:30N 42°22' W 071°03'0 0.0
2018-Jun-17 11:00N 42°22' W 071°03'0 0.0
2018-Jun-17 10:30N 42°22' W 071°03'0 0.0
2018-Jun-17 10:00N 42°22' W 071°03'0 0.0
2018-Jun-17 09:30N 42°22' W 071°03'0 0.0
2018-Jun-17 09:00N 42°22' W 071°03'0 0.0
2018-Jun-17 08:30N 42°22' W 071°03'0 0.0
2018-Jun-17 08:00N 42°22' W 071°03'0 0.0
2018-Jun-17 07:30N 42°22' W 071°03'0 0.0
2018-Jun-17 07:00N 42°22' W 071°03'0 0.0
2018-Jun-17 06:30N 42°22' W 071°03'0 0.0
2018-Jun-17 06:00N 42°22' W 071°03'0 0.0
2018-Jun-17 05:30N 42°22' W 071°03'0 0.0
2018-Jun-17 05:00N 42°22' W 071°03'0 0.0
2018-Jun-17 04:30N 42°22' W 071°03'0 0.0
2018-Jun-17 04:00N 42°22' W 071°03'0 0.0
2018-Jun-17 03:30N 42°22' W 071°03'0 0.0
2018-Jun-17 03:00N 42°22' W 071°03'0 0.0
2018-Jun-17 02:30N 42°22' W 071°03'0 0.0
2018-Jun-17 02:00N 42°22' W 071°03'0 0.0
2018-Jun-17 01:30N 42°22' W 071°03'0 0.0
2018-Jun-17 01:00N 42°22' W 071°03'0 0.0
2018-Jun-17 00:30N 42°22' W 071°03'0 0.0
2018-Jun-17 00:00N 42°22' W 071°03'0 0.0
2018-Jun-16 23:30N 42°22' W 071°03'0 0.0
2018-Jun-16 23:00N 42°22' W 071°03'0 0.0
2018-Jun-16 22:30N 42°22' W 071°03'0 0.0
2018-Jun-16 22:00N 42°22' W 071°03'0 0.0
2018-Jun-16 21:30N 42°22' W 071°03'0 0.0
2018-Jun-16 21:00N 42°22' W 071°03'0 0.0
2018-Jun-16 20:30N 42°22' W 071°03'0 0.0
2018-Jun-16 20:00N 42°22' W 071°03'0 0.0
2018-Jun-16 19:30N 42°22' W 071°03'0 0.0
2018-Jun-16 19:00N 42°22' W 071°03'0 0.0
2018-Jun-16 18:30N 42°22' W 071°03'0 0.0
2018-Jun-16 18:00N 42°22' W 071°03'0 0.0
2018-Jun-16 17:30N 42°22' W 071°03'0 0.0
2018-Jun-16 17:00N 42°22' W 071°03'0 0.0
2018-Jun-16 16:30N 42°22' W 071°03'3 5.6
2018-Jun-16 16:00N 42°20' W 071°00'5 9.7
2018-Jun-16 15:30N 42°22' W 070°54'5 9.6
2018-Jun-16 15:00N 42°23' W 070°48'4 8.4
2018-Jun-16 14:30N 42°21' W 070°43'4 8.9
2018-Jun-16 14:00N 42°17' W 070°40'4 8.7
2018-Jun-16 13:30N 42°14' W 070°36'27 8.4
2018-Jun-16 10:20N 41°48' W 070°29'84 7.5
2018-Jun-15 23:14N 41°14' W 072°11'310.4
2018-Jun-15 22:55N 41°13' W 072°15'513.4
2018-Jun-15 22:30N 41°12' W 072°22'612.6
2018-Jun-15 22:00N 41°10' W 072°30'612.7
2018-Jun-15 21:30N 41°09' W 072°38'63 2.0
2018-Jun-14 14:55N 40°47' W 073°56'3 7.6
2018-Jun-14 14:30N 40°44' W 073°58'3 6.3
2018-Jun-14 14:01N 40°42' W 074°02'4 7.1
2018-Jun-14 13:29N 40°46' W 074°00'  

Dump ship's entire track history